createdAt,value
2022-12-25T00:07:34.817Z,0.18
2022-12-25T00:17:34.856Z,0.15
2022-12-25T00:27:34.824Z,0.1
2022-12-25T00:37:34.884Z,0.11
2022-12-25T00:47:35.025Z,0.06
2022-12-25T00:57:34.858Z,0.1
2022-12-25T01:07:34.849Z,0.17
2022-12-25T01:17:34.860Z,0.16
2022-12-25T01:27:34.856Z,0.11
2022-12-25T01:37:34.880Z,0.09
2022-12-25T01:47:34.878Z,0.17
2022-12-25T01:57:34.864Z,0.21
2022-12-25T02:07:34.878Z,0.26
2022-12-25T02:17:34.914Z,0.25
2022-12-25T02:27:34.890Z,0.19
2022-12-25T02:37:34.945Z,0.19
2022-12-25T02:47:34.883Z,0.17
2022-12-25T02:57:34.928Z,0.16
2022-12-25T03:07:34.909Z,0.14
2022-12-25T03:17:34.982Z,0.11
2022-12-25T03:27:34.967Z,0.1
2022-12-25T03:37:34.958Z,0.11
2022-12-25T03:47:34.937Z,0.09
2022-12-25T03:57:34.972Z,0.07
2022-12-25T04:07:34.919Z,0.05
2022-12-25T04:17:34.959Z,-0.08
2022-12-25T04:27:34.935Z,-0.14
2022-12-25T04:37:34.974Z,-0.24
2022-12-25T04:47:34.974Z,-0.25
2022-12-25T04:57:34.993Z,-0.43
2022-12-25T05:07:34.981Z,-0.48
2022-12-25T05:17:35.038Z,-0.47
2022-12-25T05:27:35.051Z,-0.5
2022-12-25T05:37:35.012Z,-0.47
2022-12-25T05:47:35.014Z,-0.48
2022-12-25T05:57:35.571Z,-0.59
2022-12-25T06:07:35.046Z,-0.59
2022-12-25T06:17:35.027Z,-0.55
2022-12-25T06:27:35.030Z,-0.56
2022-12-25T06:37:35.057Z,-0.7
2022-12-25T06:47:35.064Z,-0.77
2022-12-25T06:57:35.081Z,-0.81
2022-12-25T07:07:35.072Z,-0.78
2022-12-25T07:17:35.103Z,-0.83
2022-12-25T07:27:35.091Z,-0.8
2022-12-25T07:37:35.095Z,-0.74
2022-12-25T07:47:35.080Z,-0.68
2022-12-25T07:57:35.125Z,-0.55
2022-12-25T08:07:35.106Z,-0.57
2022-12-25T08:17:35.127Z,-0.43
2022-12-25T08:27:35.140Z,-0.36
2022-12-25T08:37:35.162Z,-0.28
2022-12-25T08:47:35.219Z,-0.07
2022-12-25T08:57:35.193Z,0.11
2022-12-25T09:07:35.154Z,0.23
2022-12-25T09:17:35.211Z,0.22
2022-12-25T09:27:35.150Z,0.3
2022-12-25T09:37:35.179Z,0.4
2022-12-25T09:47:35.147Z,0.55
2022-12-25T09:57:35.176Z,0.62
2022-12-25T10:07:35.153Z,0.83
2022-12-25T10:17:35.215Z,0.87
2022-12-25T10:27:35.213Z,1.04
2022-12-25T10:37:35.197Z,1.01
2022-12-25T10:47:35.201Z,1.2
2022-12-25T10:57:35.211Z,1.4
2022-12-25T11:07:35.215Z,1.51
2022-12-25T11:17:35.238Z,1.56
2022-12-25T11:27:35.204Z,1.43
2022-12-25T11:37:35.254Z,1.63
2022-12-25T11:47:35.222Z,1.56
2022-12-25T11:57:35.252Z,1.71
2022-12-25T12:07:35.260Z,1.73
2022-12-25T12:17:35.300Z,1.9
2022-12-25T12:27:35.202Z,1.89
2022-12-25T12:37:35.249Z,1.73
2022-12-25T12:47:35.243Z,1.68
2022-12-25T12:57:35.266Z,1.95
2022-12-25T13:07:35.257Z,1.9
2022-12-25T13:17:35.302Z,1.94
2022-12-25T13:27:35.233Z,1.89
2022-12-25T13:37:35.296Z,1.93
2022-12-25T13:47:35.278Z,1.81
2022-12-25T13:57:35.303Z,1.74
2022-12-25T14:07:35.279Z,1.54
2022-12-25T14:17:35.267Z,1.48
2022-12-25T14:27:35.282Z,1.26
2022-12-25T14:37:35.291Z,1.14
2022-12-25T14:47:35.277Z,1.09
2022-12-25T14:57:35.302Z,1.07
2022-12-25T15:07:35.278Z,0.94
2022-12-25T15:17:35.327Z,0.87
2022-12-25T15:27:35.291Z,0.85
2022-12-25T15:37:35.384Z,0.79
2022-12-25T15:47:35.379Z,0.76
2022-12-25T15:57:35.321Z,0.69
2022-12-25T16:07:35.465Z,0.51
2022-12-25T16:17:35.453Z,0.45
2022-12-25T16:27:35.429Z,0.49
2022-12-25T16:37:35.486Z,0.5
2022-12-25T16:47:35.370Z,0.55
2022-12-25T16:57:35.348Z,0.53
2022-12-25T17:07:35.344Z,0.37
2022-12-25T17:17:35.365Z,0.28
2022-12-25T17:27:35.412Z,0.19
2022-12-25T17:37:35.392Z,0.1
2022-12-25T17:47:35.396Z,0.12
2022-12-25T17:57:35.422Z,0.07
2022-12-25T18:07:35.442Z,0.03
2022-12-25T18:17:35.421Z,0.05
2022-12-25T18:27:35.399Z,0
2022-12-25T18:37:39.859Z,-0.05
2022-12-25T18:47:35.391Z,-0.13
2022-12-25T18:57:35.432Z,-0.26
2022-12-25T19:07:35.418Z,-0.34
2022-12-25T19:17:35.473Z,-0.35
2022-12-25T19:27:35.456Z,-0.41
2022-12-25T19:37:35.476Z,-0.37
2022-12-25T19:47:35.446Z,-0.39
2022-12-25T19:57:35.477Z,-0.4
2022-12-25T20:07:35.486Z,-0.42
2022-12-25T20:17:35.561Z,-0.37
2022-12-25T20:27:35.471Z,-0.3
2022-12-25T20:37:35.515Z,-0.27
2022-12-25T20:47:35.491Z,-0.25
2022-12-25T20:57:35.577Z,-0.26
2022-12-25T21:07:35.490Z,-0.28
2022-12-25T21:17:35.556Z,-0.3
2022-12-25T21:27:35.494Z,-0.28
2022-12-25T21:37:35.581Z,-0.32
2022-12-25T21:48:00.599Z,-0.39
2022-12-25T21:57:35.575Z,-0.49
2022-12-25T22:07:35.512Z,-0.59
2022-12-25T22:17:35.564Z,-0.65
2022-12-25T22:27:35.569Z,-0.6
2022-12-25T22:37:35.574Z,-0.61
2022-12-25T22:47:35.553Z,-0.64
2022-12-25T22:57:35.626Z,-0.72
2022-12-25T23:07:35.654Z,-0.8
2022-12-25T23:17:35.633Z,-0.84
2022-12-25T23:27:35.606Z,-0.93
2022-12-25T23:37:35.659Z,-0.94
2022-12-25T23:47:35.618Z,-0.84
2022-12-25T23:57:35.637Z,-0.84
